createdAt,value
2022-10-18T00:00:22.034Z,41.30
2022-10-18T00:02:49.059Z,41.92
2022-10-18T00:05:16.096Z,44.50
2022-10-18T00:07:43.022Z,43.53
2022-10-18T00:10:10.469Z,49.60
2022-10-18T00:12:37.884Z,44.53
2022-10-18T00:15:07.412Z,44.97
2022-10-18T00:17:35.900Z,45.58
2022-10-18T00:20:03.224Z,42.20
2022-10-18T00:22:30.534Z,41.92
2022-10-18T00:24:57.934Z,40.03
2022-10-18T00:27:25.053Z,46.45
2022-10-18T00:29:54.821Z,52.33
2022-10-18T00:32:21.861Z,44.38
2022-10-18T00:34:48.935Z,47.83
2022-10-18T00:37:15.974Z,46.30
2022-10-18T00:39:43.160Z,44.55
2022-10-18T00:42:18.739Z,45.60
2022-10-18T00:44:45.648Z,58.50
2022-10-18T00:47:16.496Z,52.40
2022-10-18T00:49:47.972Z,49.55
2022-10-18T00:52:21.899Z,49.15
2022-10-18T00:54:52.082Z,49.63
2022-10-18T00:57:19.244Z,47.70
2022-10-18T00:59:46.763Z,46.97
2022-10-18T01:02:18.500Z,53.35
2022-10-18T01:04:46.557Z,50.05
2022-10-18T01:07:22.358Z,48.20
2022-10-18T01:10:04.593Z,53.33
2022-10-18T01:13:10.702Z,48.88
2022-10-18T01:15:52.937Z,55.00
2022-10-18T01:18:34.152Z,54.10
2022-10-18T01:21:33.249Z,50.15
2022-10-18T01:24:46.135Z,56.03
2022-10-18T01:27:50.435Z,54.88
2022-10-18T01:30:32.567Z,57.42
2022-10-18T01:33:16.312Z,55.00
2022-10-18T01:35:49.305Z,54.97
2022-10-18T01:38:19.629Z,55.33
2022-10-18T01:40:49.902Z,53.42
2022-10-18T01:43:18.613Z,52.97
2022-10-18T01:45:46.389Z,58.63
2022-10-18T01:48:14.602Z,60.20
2022-10-18T01:50:42.124Z,60.15
2022-10-18T01:53:23.629Z,63.15
2022-10-18T01:56:22.591Z,67.85
2022-10-18T01:58:52.505Z,62.95
2022-10-18T02:01:41.238Z,62.92
2022-10-18T02:04:30.428Z,60.95
2022-10-18T02:07:17.609Z,67.83
2022-10-18T02:09:52.159Z,60.22
2022-10-18T02:12:20.683Z,66.57
2022-10-18T02:14:49.744Z,61.42
2022-10-18T02:17:18.690Z,62.50
2022-10-18T02:19:54.189Z,64.18
2022-10-18T02:22:26.313Z,64.07
2022-10-18T02:24:56.363Z,58.83
2022-10-18T02:29:51.167Z,63.88
2022-10-18T02:32:49.686Z,64.03
2022-10-18T02:35:23.748Z,62.30
2022-10-18T02:37:52.584Z,60.10
2022-10-18T02:40:20.053Z,62.63
2022-10-18T02:42:50.944Z,56.25
2022-10-18T02:45:18.286Z,57.42
2022-10-18T02:47:45.269Z,61.28
2022-10-18T02:50:13.387Z,59.38
2022-10-18T02:52:40.345Z,58.03
2022-10-18T02:55:08.471Z,61.30
2022-10-18T02:57:36.109Z,59.10
2022-10-18T03:00:05.749Z,61.97
2022-10-18T03:02:32.910Z,65.35
2022-10-18T03:04:59.964Z,60.22
2022-10-18T03:07:27.243Z,61.20
2022-10-18T03:09:54.232Z,57.55
2022-10-18T03:12:21.223Z,62.97
2022-10-18T03:14:49.348Z,60.88
2022-10-18T03:17:16.347Z,56.72
2022-10-18T03:19:43.336Z,62.85
2022-10-18T03:22:10.279Z,63.78
2022-10-18T03:24:37.246Z,54.63
2022-10-18T03:27:04.400Z,55.25
2022-10-18T03:29:31.413Z,57.70
2022-10-18T03:31:58.335Z,58.00
2022-10-18T03:34:25.349Z,59.58
2022-10-18T03:36:52.380Z,61.15
2022-10-18T03:39:19.398Z,57.95
2022-10-18T03:41:46.415Z,57.25
2022-10-18T03:44:13.354Z,55.40
2022-10-18T03:46:40.361Z,60.17
2022-10-18T03:49:07.437Z,58.88
2022-10-18T03:51:34.403Z,57.88
2022-10-18T03:54:01.376Z,65.15
2022-10-18T03:56:28.357Z,56.05
2022-10-18T03:58:55.294Z,59.25
2022-10-18T04:01:22.295Z,69.07
2022-10-18T04:03:49.401Z,71.82
2022-10-18T04:06:16.494Z,74.93
2022-10-18T04:08:43.492Z,80.45
2022-10-18T04:11:11.309Z,74.50
2022-10-18T04:13:38.736Z,73.75
2022-10-18T04:16:06.066Z,76.95
2022-10-18T04:18:33.143Z,75.10
2022-10-18T04:21:00.103Z,70.00
2022-10-18T04:23:39.699Z,66.88
2022-10-18T04:28:48.030Z,70.35
2022-10-18T04:31:15.059Z,68.13
2022-10-18T04:33:42.028Z,64.28
2022-10-18T04:36:09.072Z,62.63
2022-10-18T04:38:36.071Z,60.30
2022-10-18T04:41:03.122Z,54.45
2022-10-18T04:43:30.099Z,58.55
2022-10-18T04:45:57.182Z,54.22
2022-10-18T04:48:24.304Z,58.28
2022-10-18T04:50:52.715Z,54.00
2022-10-18T04:53:19.687Z,57.65
2022-10-18T04:55:49.136Z,56.47
2022-10-18T04:58:19.753Z,55.10
2022-10-18T05:00:47.908Z,58.78
2022-10-18T05:03:15.405Z,62.03
2022-10-18T05:06:00.966Z,59.53
2022-10-18T05:08:30.174Z,53.83
2022-10-18T05:10:57.277Z,62.33
2022-10-18T05:13:24.545Z,56.13
2022-10-18T05:15:51.618Z,57.75
2022-10-18T05:18:18.803Z,57.25
2022-10-18T05:20:47.014Z,52.33
2022-10-18T05:23:13.971Z,52.60
2022-10-18T05:25:42.362Z,48.08
2022-10-18T05:28:34.004Z,43.53
2022-10-18T05:31:04.716Z,45.85
2022-10-18T05:33:32.325Z,51.28
2022-10-18T05:35:59.768Z,46.42
2022-10-18T05:38:27.069Z,48.58
2022-10-18T05:40:54.024Z,48.58
2022-10-18T05:43:22.047Z,50.38
2022-10-18T05:45:52.098Z,54.33
2022-10-18T05:48:19.219Z,50.38
2022-10-18T05:50:46.379Z,43.65
2022-10-18T05:53:35.078Z,45.35
2022-10-18T05:56:03.764Z,46.08
2022-10-18T05:58:30.851Z,49.03
2022-10-18T06:01:02.474Z,55.05
2022-10-18T06:03:31.178Z,50.15
2022-10-18T06:06:05.069Z,48.92
2022-10-18T06:08:32.699Z,45.13
2022-10-18T06:11:00.051Z,49.30
2022-10-18T06:13:29.076Z,49.92
2022-10-18T06:15:58.338Z,48.95
2022-10-18T06:18:25.397Z,47.97
2022-10-18T06:20:59.682Z,48.42
2022-10-18T06:23:28.130Z,45.90
2022-10-18T06:26:02.790Z,44.03
2022-10-18T06:28:30.899Z,53.83
2022-10-18T06:30:58.518Z,48.83
2022-10-18T06:33:25.948Z,53.13
2022-10-18T06:35:56.767Z,50.90
2022-10-18T06:38:24.151Z,50.92
2022-10-18T06:40:51.269Z,49.63
2022-10-18T06:43:21.563Z,46.53
2022-10-18T06:45:49.525Z,44.63
2022-10-18T06:48:17.363Z,46.97
2022-10-18T06:50:52.099Z,49.85
2022-10-18T06:53:19.120Z,50.38
2022-10-18T06:55:47.012Z,43.30
2022-10-18T06:58:14.014Z,40.03
2022-10-18T07:00:41.342Z,45.50
2022-10-18T07:03:08.428Z,44.25
2022-10-18T07:05:35.425Z,42.60
2022-10-18T07:08:02.425Z,41.58
2022-10-18T07:10:29.477Z,39.88
2022-10-18T07:13:13.592Z,44.03
2022-10-18T07:15:44.009Z,41.53
2022-10-18T07:18:11.165Z,37.95
2022-10-18T07:20:38.347Z,40.17
2022-10-18T07:23:08.592Z,36.75
2022-10-18T07:25:36.233Z,35.50
2022-10-18T07:28:03.210Z,36.13
2022-10-18T07:30:30.472Z,36.85
2022-10-18T07:32:57.469Z,36.90
2022-10-18T07:35:24.397Z,29.20
2022-10-18T07:37:52.779Z,34.65
2022-10-18T07:40:19.743Z,38.50
2022-10-18T07:42:46.757Z,36.80
2022-10-18T07:45:13.961Z,33.58
2022-10-18T07:47:41.456Z,36.30
2022-10-18T07:50:09.251Z,32.83
2022-10-18T07:52:36.296Z,33.00
2022-10-18T07:55:03.457Z,35.55
2022-10-18T07:57:30.567Z,29.52
2022-10-18T07:59:57.882Z,31.40
2022-10-18T08:02:24.977Z,31.63
2022-10-18T08:04:51.976Z,31.55
2022-10-18T08:07:18.997Z,30.48
2022-10-18T08:09:46.077Z,36.13
2022-10-18T08:12:13.305Z,33.00
2022-10-18T08:14:40.334Z,33.17
2022-10-18T08:17:07.554Z,35.35
2022-10-18T08:19:34.535Z,32.08
2022-10-18T08:22:01.620Z,30.45
2022-10-18T08:24:28.648Z,33.38
2022-10-18T08:26:55.584Z,34.25
2022-10-18T08:29:25.877Z,30.80
2022-10-18T08:31:53.908Z,30.88
2022-10-18T08:34:21.058Z,29.33
2022-10-18T08:36:48.033Z,36.85
2022-10-18T08:39:14.980Z,29.02
2022-10-18T08:42:03.723Z,28.98
2022-10-18T08:44:32.326Z,34.88
2022-10-18T08:47:00.953Z,32.38
2022-10-18T08:49:47.857Z,33.33
2022-10-18T08:52:53.109Z,33.80
2022-10-18T08:55:36.724Z,35.75
2022-10-18T08:58:12.917Z,30.83
2022-10-18T09:00:43.282Z,30.15
2022-10-18T09:03:47.817Z,31.85
2022-10-18T09:06:39.158Z,34.58
2022-10-18T09:09:28.047Z,31.88
2022-10-18T09:12:16.776Z,31.63
2022-10-18T09:14:46.981Z,33.03
2022-10-18T09:17:43.326Z,31.55
2022-10-18T09:20:22.567Z,36.90
2022-10-18T09:22:54.184Z,30.98
2022-10-18T09:25:23.045Z,32.13
2022-10-18T09:28:01.284Z,28.75
2022-10-18T09:30:59.853Z,32.00
2022-10-18T09:33:58.523Z,31.35
2022-10-18T09:36:37.261Z,29.58
2022-10-18T09:39:22.753Z,32.63
2022-10-18T09:42:03.542Z,32.35
2022-10-18T09:44:36.182Z,28.48
2022-10-18T09:47:17.152Z,30.42
2022-10-18T09:50:00.942Z,29.13
2022-10-18T09:52:34.036Z,29.90
2022-10-18T09:55:09.179Z,31.30
2022-10-18T09:57:42.994Z,32.58
2022-10-18T10:00:19.001Z,33.85
2022-10-18T10:02:46.108Z,32.28
2022-10-18T10:05:14.821Z,32.30
2022-10-18T10:07:44.667Z,31.67
2022-10-18T10:12:44.427Z,39.25
2022-10-18T10:15:29.694Z,38.78
2022-10-18T10:18:20.046Z,33.65
2022-10-18T10:20:56.328Z,39.05
2022-10-18T10:23:27.080Z,36.70
2022-10-18T10:25:56.891Z,39.58
2022-10-18T10:30:53.377Z,34.63
2022-10-18T10:33:33.745Z,30.65
2022-10-18T10:36:02.913Z,36.38
2022-10-18T10:38:31.219Z,33.65
2022-10-18T10:40:59.484Z,33.67
2022-10-18T10:43:39.976Z,34.35
2022-10-18T10:46:19.314Z,32.60
2022-10-18T10:49:21.769Z,31.33
2022-10-18T10:52:02.473Z,36.97
2022-10-18T10:54:47.531Z,29.83
2022-10-18T10:57:31.727Z,31.25
2022-10-18T11:00:00.105Z,32.13
2022-10-18T11:02:32.601Z,35.42
2022-10-18T11:05:27.296Z,31.35
2022-10-18T11:08:02.468Z,27.98
2022-10-18T11:10:34.779Z,29.65
2022-10-18T11:13:29.123Z,28.42
2022-10-18T11:16:05.052Z,30.48
2022-10-18T11:18:36.350Z,25.83
2022-10-18T11:21:11.919Z,25.85
2022-10-18T11:23:42.377Z,25.63
2022-10-18T11:26:12.566Z,26.88
2022-10-18T11:28:50.507Z,27.85
2022-10-18T11:31:36.248Z,28.23
2022-10-18T11:34:11.882Z,29.98
2022-10-18T11:36:56.096Z,26.02
2022-10-18T11:39:52.777Z,27.98
2022-10-18T11:42:31.614Z,28.40
2022-10-18T11:45:01.571Z,28.27
2022-10-18T11:48:18.978Z,22.33
2022-10-18T11:50:52.230Z,26.50
2022-10-18T11:53:56.499Z,27.83
2022-10-18T11:56:42.887Z,23.15
2022-10-18T11:59:17.870Z,24.60
2022-10-18T12:01:55.352Z,23.90
2022-10-18T12:04:28.151Z,21.02
2022-10-18T12:06:56.738Z,21.92
2022-10-18T12:09:33.269Z,20.23
2022-10-18T12:12:12.217Z,18.52
2022-10-18T12:15:01.724Z,20.25
2022-10-18T12:17:45.096Z,23.50
2022-10-18T12:20:56.602Z,18.30
2022-10-18T12:23:29.450Z,22.10
2022-10-18T12:26:03.614Z,18.48
2022-10-18T12:28:30.841Z,17.23
2022-10-18T12:31:12.411Z,19.48
2022-10-18T12:33:44.038Z,18.30
2022-10-18T12:36:21.976Z,18.67
2022-10-18T12:39:12.850Z,16.65
2022-10-18T12:41:39.934Z,16.55
2022-10-18T12:44:34.541Z,19.85
2022-10-18T12:47:04.530Z,18.00
2022-10-18T12:49:35.598Z,16.00
2022-10-18T12:52:06.687Z,15.63
2022-10-18T12:54:39.407Z,20.70
2022-10-18T12:57:22.293Z,18.38
2022-10-18T12:59:49.863Z,18.05
2022-10-18T13:02:22.922Z,15.90
2022-10-18T13:04:50.278Z,18.35
2022-10-18T13:07:21.155Z,16.23
2022-10-18T13:10:10.172Z,19.92
2022-10-18T13:13:39.879Z,18.83
2022-10-18T13:16:12.657Z,16.20
2022-10-18T13:18:53.132Z,15.98
2022-10-18T13:21:46.336Z,18.10
2022-10-18T13:25:04.287Z,17.33
2022-10-18T13:27:59.886Z,20.00
2022-10-18T13:30:52.920Z,22.75
2022-10-18T13:33:33.500Z,15.15
2022-10-18T13:36:32.988Z,21.65
2022-10-18T13:41:58.416Z,19.25
2022-10-18T13:44:39.634Z,20.13
2022-10-18T13:47:07.262Z,14.73
2022-10-18T13:49:40.649Z,16.00
2022-10-18T13:52:26.330Z,15.65
2022-10-18T13:55:08.472Z,17.17
2022-10-18T13:57:47.571Z,17.08
2022-10-18T14:00:35.438Z,16.27
2022-10-18T14:03:54.965Z,16.40
2022-10-18T14:06:43.776Z,14.88
2022-10-18T14:12:27.743Z,14.65
2022-10-18T14:15:03.896Z,16.13
2022-10-18T14:18:06.864Z,16.08
2022-10-18T14:21:01.405Z,15.77
2022-10-18T14:23:43.543Z,19.95
2022-10-18T14:26:19.083Z,17.42
2022-10-18T14:29:01.728Z,14.65
2022-10-18T14:31:28.909Z,13.02
2022-10-18T14:33:58.715Z,16.90
2022-10-18T14:36:30.044Z,19.25
2022-10-18T14:39:00.461Z,12.75
2022-10-18T14:41:29.985Z,23.08
2022-10-18T14:44:28.145Z,15.10
2022-10-18T14:47:16.598Z,16.67
2022-10-18T14:49:45.283Z,21.35
2022-10-18T14:52:26.617Z,14.18
2022-10-18T14:54:58.280Z,14.18
2022-10-18T14:57:32.010Z,15.40
2022-10-18T15:00:03.288Z,13.88
2022-10-18T15:02:33.586Z,16.75
2022-10-18T15:05:09.840Z,14.77
2022-10-18T15:07:37.454Z,16.45
2022-10-18T15:10:05.670Z,16.88
2022-10-18T15:13:04.887Z,14.10
2022-10-18T15:15:32.444Z,17.42
2022-10-18T15:18:00.541Z,14.95
2022-10-18T15:20:32.036Z,13.80
2022-10-18T15:23:23.927Z,21.00
2022-10-18T15:26:04.163Z,13.05
2022-10-18T15:28:40.275Z,14.40
2022-10-18T15:31:22.075Z,16.02
2022-10-18T15:33:49.303Z,17.27
2022-10-18T15:36:29.444Z,14.20
2022-10-18T15:39:14.939Z,15.77
2022-10-18T15:41:51.895Z,14.63
2022-10-18T15:44:24.063Z,13.00
2022-10-18T15:46:56.724Z,14.00
2022-10-18T15:49:45.776Z,16.20
2022-10-18T15:52:21.570Z,16.75
2022-10-18T15:57:36.553Z,18.83
2022-10-18T16:00:08.219Z,15.55
2022-10-18T16:02:45.389Z,16.83
2022-10-18T16:05:19.217Z,16.92
2022-10-18T16:07:51.490Z,15.10
2022-10-18T16:10:18.646Z,18.13
2022-10-18T16:12:45.835Z,20.10
2022-10-18T16:15:13.020Z,17.27
2022-10-18T16:17:40.190Z,21.27
2022-10-18T16:20:21.983Z,22.52
2022-10-18T16:22:49.264Z,22.15
2022-10-18T16:25:16.938Z,23.10
2022-10-18T16:27:44.109Z,19.75
2022-10-18T16:30:18.558Z,17.95
2022-10-18T16:32:46.725Z,18.77
2022-10-18T16:35:13.919Z,19.65
2022-10-18T16:37:41.081Z,19.88
2022-10-18T16:40:25.975Z,19.50
2022-10-18T16:42:53.075Z,20.23
2022-10-18T16:45:20.217Z,24.83
2022-10-18T16:47:47.300Z,20.02
2022-10-18T16:50:17.661Z,25.17
2022-10-18T16:52:45.029Z,25.20
2022-10-18T16:55:21.274Z,22.35
2022-10-18T16:57:49.047Z,20.80
2022-10-18T17:00:22.848Z,22.95
2022-10-18T17:02:50.180Z,21.80
2022-10-18T17:05:18.203Z,24.38
2022-10-18T17:07:47.072Z,26.50
2022-10-18T17:10:21.263Z,27.40
2022-10-18T17:12:48.332Z,26.92
2022-10-18T17:15:15.322Z,26.73
2022-10-18T17:17:42.439Z,28.67
2022-10-18T17:20:26.266Z,21.73
2022-10-18T17:22:54.356Z,29.10
2022-10-18T17:25:21.420Z,27.20
2022-10-18T17:27:48.659Z,25.85
2022-10-18T17:30:15.775Z,25.58
2022-10-18T17:32:45.570Z,29.13
2022-10-18T17:37:44.027Z,24.95
2022-10-18T17:40:13.106Z,29.85
2022-10-18T17:42:40.098Z,31.05
2022-10-18T17:45:07.709Z,25.50
2022-10-18T17:47:35.039Z,30.30
2022-10-18T17:50:02.339Z,26.42
2022-10-18T17:52:29.266Z,36.40
2022-10-18T17:54:56.356Z,27.42
2022-10-18T17:57:23.345Z,29.13
2022-10-18T17:59:50.476Z,28.52
2022-10-18T18:02:17.438Z,28.95
2022-10-18T18:04:44.656Z,33.47
2022-10-18T18:07:11.594Z,30.70
2022-10-18T18:09:38.956Z,29.13
2022-10-18T18:12:06.080Z,31.70
2022-10-18T18:14:33.178Z,29.50
2022-10-18T18:17:01.628Z,29.55
2022-10-18T18:19:28.787Z,32.70
2022-10-18T18:21:55.961Z,30.52
2022-10-18T18:24:24.899Z,30.58
2022-10-18T18:26:55.579Z,29.53
2022-10-18T18:29:24.381Z,26.80
2022-10-18T18:31:55.746Z,31.20
2022-10-18T18:34:23.800Z,28.58
2022-10-18T18:36:52.656Z,30.60
2022-10-18T18:39:29.791Z,29.30
2022-10-18T18:41:56.861Z,34.63
2022-10-18T18:44:25.219Z,30.35
2022-10-18T18:46:52.291Z,37.65
2022-10-18T18:49:19.443Z,31.15
2022-10-18T18:51:46.492Z,34.50
2022-10-18T18:54:15.159Z,30.17
2022-10-18T18:56:42.744Z,34.33
2022-10-18T18:59:13.284Z,33.40
2022-10-18T19:01:41.522Z,30.17
2022-10-18T19:04:09.561Z,28.60
2022-10-18T19:06:41.017Z,29.17
2022-10-18T19:09:25.984Z,32.75
2022-10-18T19:11:56.768Z,35.92
2022-10-18T19:14:25.879Z,28.27
2022-10-18T19:16:59.253Z,32.53
2022-10-18T19:19:28.366Z,34.72
2022-10-18T19:21:57.917Z,31.92
2022-10-18T19:24:28.839Z,27.88
2022-10-18T19:27:01.623Z,30.10
2022-10-18T19:29:31.856Z,27.77
2022-10-18T19:32:02.575Z,28.95
2022-10-18T19:34:30.503Z,31.73
2022-10-18T19:36:58.346Z,34.22
2022-10-18T19:39:28.137Z,34.35
2022-10-18T19:41:58.226Z,36.13
2022-10-18T19:44:28.611Z,38.58
2022-10-18T19:46:55.863Z,33.90
2022-10-18T19:49:23.034Z,38.42
2022-10-18T19:51:50.125Z,36.40
2022-10-18T19:54:17.180Z,38.10
2022-10-18T19:56:44.456Z,39.38
2022-10-18T19:59:13.079Z,38.05
2022-10-18T20:01:40.491Z,41.85
2022-10-18T20:04:08.632Z,40.13
2022-10-18T20:06:37.298Z,39.85
2022-10-18T20:09:08.288Z,39.30
2022-10-18T20:11:36.324Z,38.13
2022-10-18T20:14:05.548Z,36.97
2022-10-18T20:16:34.055Z,37.45
2022-10-18T20:19:03.549Z,32.60
2022-10-18T20:21:32.719Z,40.90
2022-10-18T20:23:59.724Z,39.50
2022-10-18T20:26:26.855Z,36.83
2022-10-18T20:28:59.623Z,36.85
2022-10-18T20:31:29.696Z,39.75
2022-10-18T20:34:02.013Z,31.60
2022-10-18T20:36:31.219Z,32.95
2022-10-18T20:38:59.263Z,32.13
2022-10-18T20:41:34.392Z,30.67
2022-10-18T20:44:04.376Z,30.75
2022-10-18T20:46:33.765Z,31.92
2022-10-18T20:49:01.686Z,32.33
2022-10-18T20:51:29.092Z,36.95
2022-10-18T20:53:56.277Z,37.08
2022-10-18T20:56:26.769Z,35.50
2022-10-18T20:58:56.737Z,34.15
2022-10-18T21:03:55.459Z,31.63
2022-10-18T21:06:28.496Z,35.08
2022-10-18T21:09:01.113Z,36.35
2022-10-18T21:11:30.010Z,34.35
2022-10-18T21:14:02.221Z,35.35
2022-10-18T21:16:30.442Z,37.20
2022-10-18T21:19:02.406Z,34.67
2022-10-18T21:21:29.523Z,36.45
2022-10-18T21:23:56.523Z,34.20
2022-10-18T21:26:26.495Z,35.00
2022-10-18T21:31:24.109Z,41.55
2022-10-18T21:33:56.604Z,30.67
2022-10-18T21:36:24.397Z,32.47
2022-10-18T21:38:51.805Z,34.42
2022-10-18T21:41:20.361Z,34.53
2022-10-18T21:43:50.129Z,32.83
2022-10-18T21:46:18.673Z,37.65
2022-10-18T21:48:47.710Z,45.03
2022-10-18T21:51:17.838Z,40.33
2022-10-18T21:53:48.177Z,47.28
2022-10-18T21:56:20.429Z,39.75
2022-10-18T21:58:47.893Z,33.97
2022-10-18T22:01:17.775Z,34.45
2022-10-18T22:06:14.891Z,35.90
2022-10-18T22:08:44.538Z,42.17
2022-10-18T22:11:13.408Z,40.78
2022-10-18T22:13:41.540Z,42.25
2022-10-18T22:16:11.169Z,42.72
2022-10-18T22:18:38.205Z,44.35
2022-10-18T22:21:07.737Z,45.55
2022-10-18T22:23:36.854Z,44.20
2022-10-18T22:26:12.994Z,44.75
2022-10-18T22:28:41.713Z,42.95
2022-10-18T22:31:20.708Z,46.00
2022-10-18T22:33:53.309Z,45.90
2022-10-18T22:36:20.502Z,45.03
2022-10-18T22:38:47.611Z,49.17
2022-10-18T22:41:14.775Z,48.92
2022-10-18T22:43:42.355Z,45.45
2022-10-18T22:46:12.503Z,44.70
2022-10-18T22:48:40.040Z,47.63
2022-10-18T22:51:08.155Z,43.58
2022-10-18T22:53:36.147Z,47.88
2022-10-18T22:56:03.831Z,45.50
2022-10-18T22:58:31.024Z,48.33
2022-10-18T23:01:15.938Z,51.05
2022-10-18T23:03:43.277Z,48.03
2022-10-18T23:06:21.497Z,51.90
2022-10-18T23:08:49.360Z,46.13
2022-10-18T23:11:16.812Z,53.20
2022-10-18T23:13:43.972Z,52.40
2022-10-18T23:16:11.238Z,49.80
2022-10-18T23:21:10.523Z,48.75
2022-10-18T23:23:40.095Z,49.20
2022-10-18T23:26:09.915Z,45.60
2022-10-18T23:28:38.450Z,51.10
2022-10-18T23:31:12.022Z,44.67
2022-10-18T23:33:40.203Z,47.53
2022-10-18T23:36:08.701Z,55.95
2022-10-18T23:38:36.908Z,55.40
2022-10-18T23:41:05.580Z,56.30
2022-10-18T23:43:32.767Z,52.60
2022-10-18T23:46:00.295Z,54.20
2022-10-18T23:48:27.621Z,52.47
2022-10-18T23:50:54.668Z,58.22
2022-10-18T23:53:22.083Z,50.15
2022-10-18T23:56:00.211Z,54.38
2022-10-18T23:58:28.975Z,53.67
